In Rescue
 
Open Full Screen Window  High Contrast Mode
September 10, 2019 8:44 PM CDT
Weather Information
Wind Direction
  ---
Wind Speed
  00 kt (0 mph)
Wind Gust
  00 kt (0 mph)
Altimeter
30.05 in
Visibility
10 SM
Temperature
14° C
57° F
Dewpoint
13° C
55° F
Humidity
94%
1hr Rain Fall
00.00 in.
24hr Rain Fall
00.29 in.
Sky Condition
Overcast @ 4,100 ft
VFR

METAR KBFW 110144Z AUTO 00000KT 10SM OVC041 14/13 A3005 RMK AO2

FAA Disclaimer: The data displayed is for advisory purposes only and is not to be used for flight planning or operations.